createdAt,value
2023-04-29T00:02:44.739Z,15.39
2023-04-29T00:07:46.149Z,15.34
2023-04-29T00:12:47.422Z,15.33
2023-04-29T00:17:48.795Z,15.27
2023-04-29T00:22:50.150Z,15.20
2023-04-29T00:27:51.433Z,15.17
2023-04-29T00:32:53.240Z,15.09
2023-04-29T00:37:55.059Z,15.06
2023-04-29T00:42:57.200Z,15.03
2023-04-29T00:47:58.635Z,14.98
2023-04-29T00:53:01.107Z,14.95
2023-04-29T00:58:05.287Z,14.90
2023-04-29T01:03:07.918Z,14.87
2023-04-29T01:08:28.116Z,14.82
2023-04-29T01:13:34.724Z,14.74
2023-04-29T01:18:46.123Z,14.69
2023-04-29T01:23:47.534Z,14.67
2023-04-29T01:29:04.945Z,14.64
2023-04-29T01:34:19.998Z,14.71
2023-04-29T01:39:32.762Z,14.73
2023-04-29T01:44:35.927Z,14.73
2023-04-29T01:49:37.804Z,14.67
2023-04-29T01:54:39.302Z,14.62
2023-04-29T01:59:41.947Z,14.63
2023-04-29T02:04:43.650Z,14.64
2023-04-29T02:09:45.164Z,14.61
2023-04-29T02:14:47.850Z,14.63
2023-04-29T02:19:49.185Z,14.64
2023-04-29T02:24:50.488Z,14.62
2023-04-29T02:29:52.139Z,14.62
2023-04-29T02:34:53.626Z,14.67
2023-04-29T02:39:55.174Z,14.66
2023-04-29T02:44:56.874Z,14.66
2023-04-29T02:49:58.238Z,14.65
2023-04-29T02:54:59.593Z,14.70
2023-04-29T03:00:00.966Z,14.65
2023-04-29T03:05:02.567Z,14.66
2023-04-29T03:10:04.539Z,14.58
2023-04-29T03:15:07.616Z,14.54
2023-04-29T03:20:10.878Z,14.48
2023-04-29T03:25:13.954Z,14.49
2023-04-29T03:30:15.565Z,14.35
2023-04-29T03:35:17.058Z,14.40
2023-04-29T03:40:19.020Z,14.34
2023-04-29T03:45:20.676Z,14.28
2023-04-29T03:50:23.190Z,14.32
2023-04-29T03:55:24.525Z,14.28
2023-04-29T04:00:31.111Z,14.28
2023-04-29T04:05:32.874Z,14.31
2023-04-29T04:10:34.157Z,14.35
2023-04-29T04:15:36.026Z,14.34
2023-04-29T04:20:37.553Z,14.25
2023-04-29T04:25:39.091Z,14.27
2023-04-29T04:30:40.724Z,14.33
2023-04-29T04:35:42.795Z,14.32
2023-04-29T04:40:44.485Z,14.19
2023-04-29T04:45:45.914Z,14.17
2023-04-29T04:50:47.383Z,14.17
2023-04-29T04:55:49.826Z,14.12
2023-04-29T05:00:51.714Z,14.22
2023-04-29T05:05:57.140Z,14.22
2023-04-29T05:10:58.656Z,14.01
2023-04-29T05:16:05.160Z,14.02
2023-04-29T05:21:07.667Z,14.00
2023-04-29T05:26:09.145Z,13.99
2023-04-29T05:31:11.275Z,14.06
2023-04-29T05:36:12.678Z,13.95
2023-04-29T05:41:14.108Z,13.94
2023-04-29T05:46:16.600Z,14.02
2023-04-29T05:51:19.931Z,14.09
2023-04-29T05:56:22.324Z,14.04
2023-04-29T06:01:23.826Z,14.22
2023-04-29T06:06:26.116Z,14.36
2023-04-29T06:11:27.544Z,14.21
2023-04-29T06:16:28.968Z,14.30
2023-04-29T06:21:32.219Z,14.21
2023-04-29T06:26:33.574Z,14.49
2023-04-29T06:31:34.938Z,14.69
2023-04-29T06:36:36.326Z,14.59
2023-04-29T06:41:37.912Z,14.67
2023-04-29T06:46:39.748Z,14.94
2023-04-29T06:51:42.776Z,15.19
2023-04-29T06:56:44.238Z,15.48
2023-04-29T07:01:48.314Z,15.32
2023-04-29T07:06:51.116Z,15.33
2023-04-29T07:11:52.457Z,14.87
2023-04-29T07:16:54.925Z,14.64
2023-04-29T07:21:56.299Z,14.63
2023-04-29T07:26:57.645Z,14.44
2023-04-29T07:32:00.556Z,14.49
2023-04-29T07:37:01.893Z,14.64
2023-04-29T07:42:04.472Z,14.42
2023-04-29T07:47:06.778Z,14.40
2023-04-29T07:52:09.999Z,14.45
2023-04-29T07:57:11.426Z,14.32
2023-04-29T08:02:14.249Z,14.39
2023-04-29T08:07:15.645Z,14.58
2023-04-29T08:12:17.334Z,14.72
2023-04-29T08:17:18.887Z,14.75
2023-04-29T08:22:20.371Z,14.78
2023-04-29T08:27:21.895Z,14.96
2023-04-29T08:32:23.410Z,14.91
2023-04-29T08:37:24.743Z,14.92
2023-04-29T08:42:34.354Z,14.91
2023-04-29T08:47:37.029Z,14.69
2023-04-29T08:52:38.464Z,14.62
2023-04-29T08:57:43.135Z,14.66
2023-04-29T09:02:53.460Z,14.73
2023-04-29T09:07:57.297Z,14.76
2023-04-29T09:12:58.661Z,14.98
2023-04-29T09:18:00.055Z,15.15
2023-04-29T09:23:06.259Z,15.22
2023-04-29T09:28:17.275Z,15.22
2023-04-29T09:33:18.695Z,15.20
2023-04-29T09:38:20.940Z,15.19
2023-04-29T09:43:23.555Z,15.10
2023-04-29T09:48:31.858Z,15.11
2023-04-29T09:53:34.659Z,15.20
2023-04-29T09:58:40.071Z,15.24
2023-04-29T10:03:42.726Z,15.12
2023-04-29T10:08:46.166Z,15.11
2023-04-29T10:13:52.090Z,15.06
2023-04-29T10:18:55.776Z,14.90
2023-04-29T10:23:59.367Z,14.94
2023-04-29T10:29:01.899Z,14.92
2023-04-29T10:34:03.350Z,15.11
2023-04-29T10:39:08.498Z,15.30
2023-04-29T10:44:10.242Z,15.27
2023-04-29T10:49:11.668Z,15.59
2023-04-29T10:54:20.351Z,16.14
2023-04-29T10:59:42.893Z,16.49
2023-04-29T11:05:10.886Z,16.66
2023-04-29T11:10:13.288Z,16.51
2023-04-29T11:15:18.157Z,16.37
2023-04-29T11:20:19.720Z,16.32
2023-04-29T11:25:21.065Z,16.38
2023-04-29T11:30:23.145Z,16.45
2023-04-29T11:35:24.474Z,16.49
2023-04-29T11:40:26.195Z,16.55
2023-04-29T11:45:28.090Z,16.54
2023-04-29T11:50:32.447Z,16.60
2023-04-29T11:55:34.472Z,16.76
2023-04-29T12:00:36.191Z,16.72
2023-04-29T12:05:37.512Z,16.52
2023-04-29T12:10:38.821Z,16.38
2023-04-29T12:15:40.997Z,16.28
2023-04-29T12:20:42.607Z,16.19
2023-04-29T12:25:49.778Z,16.04
2023-04-29T12:30:53.855Z,16.16
2023-04-29T12:35:56.724Z,16.08
2023-04-29T12:41:01.982Z,16.02
2023-04-29T12:46:05.359Z,16.06
2023-04-29T12:51:09.865Z,16.04
2023-04-29T12:56:12.250Z,16.06
2023-04-29T13:01:16.601Z,16.13
2023-04-29T13:06:20.366Z,16.20
2023-04-29T13:11:21.786Z,16.23
2023-04-29T13:16:24.794Z,16.23
2023-04-29T13:21:27.832Z,16.38
2023-04-29T13:26:29.196Z,16.48
2023-04-29T13:31:30.831Z,16.37
2023-04-29T13:36:32.377Z,16.38
2023-04-29T13:41:35.582Z,16.25
2023-04-29T13:46:38.108Z,16.19
2023-04-29T13:57:30.194Z,16.24
2023-04-29T14:07:10.046Z,16.35
2023-04-29T14:12:11.630Z,16.46
2023-04-29T14:17:13.123Z,16.55
2023-04-29T14:22:15.103Z,16.55
2023-04-29T14:27:16.517Z,16.50
2023-04-29T14:32:17.862Z,16.41
2023-04-29T14:37:19.230Z,16.47
2023-04-29T14:42:20.610Z,16.47
2023-04-29T14:47:22.018Z,16.33
2023-04-29T14:52:23.445Z,16.34
2023-04-29T14:57:25.026Z,16.34
2023-04-29T15:02:26.670Z,16.36
2023-04-29T15:07:30.431Z,16.37
2023-04-29T15:12:33.268Z,16.35
2023-04-29T15:17:34.634Z,16.31
2023-04-29T15:22:36.059Z,16.22
2023-04-29T15:27:38.308Z,16.16
2023-04-29T15:32:39.883Z,15.80
2023-04-29T15:37:41.244Z,15.85
2023-04-29T15:42:42.769Z,15.79
2023-04-29T15:47:44.248Z,15.74
2023-04-29T15:52:45.637Z,15.69
2023-04-29T15:57:47.076Z,15.67
2023-04-29T16:02:48.419Z,15.58
2023-04-29T16:07:49.789Z,15.60
2023-04-29T16:12:51.339Z,15.55
2023-04-29T16:17:53.012Z,15.51
2023-04-29T16:22:54.326Z,15.31
2023-04-29T16:27:55.777Z,15.23
2023-04-29T16:32:57.327Z,15.24
2023-04-29T16:37:58.837Z,15.25
2023-04-29T16:43:00.354Z,15.29
2023-04-29T16:48:01.971Z,15.27
2023-04-29T16:53:04.358Z,15.27
2023-04-29T16:58:05.799Z,15.25
2023-04-29T17:03:07.366Z,15.26
2023-04-29T17:08:08.823Z,15.24
2023-04-29T17:13:10.424Z,15.19
2023-04-29T17:18:13.154Z,15.11
2023-04-29T17:23:14.450Z,15.06
2023-04-29T17:28:15.846Z,15.09
2023-04-29T17:33:17.657Z,14.99
2023-04-29T17:38:19.111Z,14.97
2023-04-29T17:43:20.442Z,14.88
2023-04-29T17:48:22.589Z,14.85
2023-04-29T17:53:24.140Z,14.80
2023-04-29T17:58:27.293Z,14.83
2023-04-29T18:03:30.735Z,14.80
2023-04-29T18:08:32.533Z,14.82
2023-04-29T18:13:34.883Z,14.82
2023-04-29T18:18:37.239Z,14.62
2023-04-29T18:23:40.185Z,14.54
2023-04-29T18:28:41.725Z,14.57
2023-04-29T18:33:43.803Z,14.58
2023-04-29T18:38:45.121Z,14.47
2023-04-29T18:43:46.487Z,14.43
2023-04-29T18:48:48.520Z,14.42
2023-04-29T18:53:49.933Z,14.47
2023-04-29T18:58:51.373Z,14.52
2023-04-29T19:03:52.825Z,14.54
2023-04-29T19:08:54.393Z,14.50
2023-04-29T19:13:56.066Z,14.55
2023-04-29T19:18:57.416Z,14.55
2023-04-29T19:23:58.889Z,14.49
2023-04-29T19:29:00.671Z,14.47
2023-04-29T19:34:02.047Z,14.53
2023-04-29T19:39:04.351Z,14.49
2023-04-29T19:44:06.626Z,14.44
2023-04-29T19:49:08.062Z,14.44
2023-04-29T19:54:10.370Z,14.41
2023-04-29T19:59:13.253Z,14.46
2023-04-29T20:04:14.623Z,14.40
2023-04-29T20:09:16.348Z,14.41
2023-04-29T20:14:17.741Z,14.42
2023-04-29T20:19:19.424Z,14.41
2023-04-29T20:24:20.918Z,14.42
2023-04-29T20:29:22.409Z,14.33
2023-04-29T20:34:23.810Z,14.36
2023-04-29T20:39:25.984Z,14.36
2023-04-29T20:44:28.000Z,14.34
2023-04-29T20:49:29.440Z,14.29
2023-04-29T20:54:30.993Z,14.27
2023-04-29T20:59:35.511Z,14.27
2023-04-29T21:04:36.875Z,14.26
2023-04-29T21:09:38.940Z,14.27
2023-04-29T21:14:42.168Z,14.27
2023-04-29T21:19:44.620Z,14.29
2023-04-29T21:24:46.024Z,14.30
2023-04-29T21:29:47.419Z,14.24
2023-04-29T21:34:49.115Z,14.23
2023-04-29T21:39:51.327Z,14.22
2023-04-29T21:44:59.453Z,14.22
2023-04-29T21:50:01.201Z,14.20
2023-04-29T21:55:06.273Z,14.17
2023-04-29T22:00:21.173Z,14.13
2023-04-29T22:05:22.500Z,14.18
2023-04-29T22:10:23.856Z,14.14
2023-04-29T22:15:28.555Z,14.12
2023-04-29T22:20:30.895Z,14.09
2023-04-29T22:25:32.332Z,14.08
2023-04-29T22:30:33.665Z,14.07
2023-04-29T22:35:35.289Z,14.06
2023-04-29T22:40:37.564Z,14.06
2023-04-29T22:45:38.864Z,14.02
2023-04-29T22:50:40.874Z,13.96
2023-04-29T22:55:52.292Z,13.95
2023-04-29T23:00:56.773Z,13.96
2023-04-29T23:05:59.564Z,13.92
2023-04-29T23:11:01.156Z,13.91
2023-04-29T23:16:03.495Z,13.89
2023-04-29T23:21:05.069Z,13.89
2023-04-29T23:26:06.517Z,13.86
2023-04-29T23:31:08.388Z,13.81
2023-04-29T23:36:09.784Z,13.82
2023-04-29T23:41:11.208Z,13.84
2023-04-29T23:46:12.886Z,13.84
2023-04-29T23:51:14.242Z,13.77
2023-04-29T23:56:15.522Z,13.77
